Time;durP1;ratioP1;P1;durP2;ratioP2;P2;SDS_P1;SDS_P2;PMS_P1;PMS_P2;Temp;Humidity;BMP_temperature;BMP_pressure;BME280_temperature;BME280_humidity;BME280_pressure;Samples;Min_cycle;Max_cycle;Signal;HPM_P1;HPM_P2
2022/12/27 06:45:11;;;;;;;22.00;12.40;;;;;;;;;;5068568;28;20457;-74
2022/12/27 06:47:37;;;;;;;21.17;12.02;;;;;;;;;;5068606;28;20020;-65
2022/12/27 06:50:04;;;;;;;17.55;10.55;;;;;;;;;;5066938;28;20477;-65
2022/12/27 06:52:30;;;;;;;18.65;10.15;;;;;;;;;;5068162;28;20083;-64
2022/12/27 06:54:56;;;;;;;25.45;11.95;;;;;;;;;;5067514;28;20035;-64
2022/12/27 06:57:22;;;;;;;17.90;10.90;;;;;;;;;;5068369;28;20031;-64
2022/12/27 06:59:48;;;;;;;22.23;11.70;;;;;;;;;;5068097;28;20025;-65
2022/12/27 07:02:14;;;;;;;21.63;11.35;;;;;;;;;;5068694;28;20024;-65
2022/12/27 07:04:40;;;;;;;16.42;12.35;;;;;;;;;;5068333;28;20032;-79
2022/12/27 07:07:06;;;;;;;20.13;12.18;;;;;;;;;;5068189;28;20483;-67
2022/12/27 07:09:32;;;;;;;19.48;11.32;;;;;;;;;;5067922;28;20063;-75
2022/12/27 07:11:58;;;;;;;20.13;12.73;;;;;;;;;;5067990;28;20036;-69
2022/12/27 07:14:24;;;;;;;26.73;17.38;;;;;;;;;;5067758;28;20036;-65
2022/12/27 07:16:50;;;;;;;23.60;13.73;;;;;;;;;;5067617;28;20025;-66
2022/12/27 07:19:16;;;;;;;22.67;13.63;;;;;;;;;;5067507;28;20028;-66
2022/12/27 07:21:42;;;;;;;18.98;11.90;;;;;;;;;;5067705;28;20029;-66
2022/12/27 07:24:08;;;;;;;19.20;12.02;;;;;;;;;;5067215;28;20036;-67
2022/12/27 07:26:34;;;;;;;18.23;11.48;;;;;;;;;;5067608;28;20072;-68
2022/12/27 07:29:01;;;;;;;21.88;11.30;;;;;;;;;;5067718;28;20052;-68
2022/12/27 07:31:28;;;;;;;17.13;10.38;;;;;;;;;;5067601;28;20361;-69
2022/12/27 07:33:54;;;;;;;19.73;10.88;;;;;;;;;;5067636;28;20024;-65
2022/12/27 07:36:22;;;;;;;17.23;10.07;;;;;;;;;;5067608;28;20128;-66
2022/12/27 07:38:48;;;;;;;14.20;9.70;;;;;;;;;;5066834;28;20025;-65
2022/12/27 07:41:15;;;;;;;19.65;12.13;;;;;;;;;;5067203;28;20033;-65
2022/12/27 07:43:43;;;;;;;20.70;11.85;;;;;;;;;;5051592;28;20057;-65
2022/12/27 07:46:10;;;;;;;18.17;10.48;;;;;;;;;;5049999;28;20040;-65
2022/12/27 07:48:36;;;;;;;17.60;10.55;;;;;;;;;;5047546;28;20098;-69
2022/12/27 07:51:03;;;;;;;18.05;9.90;;;;;;;;;;5047539;28;20036;-75
2022/12/27 07:53:29;;;;;;;19.85;10.35;;;;;;;;;;5046824;28;20022;-67
2022/12/27 07:55:55;;;;;;;17.60;10.73;;;;;;;;;;5050932;28;20028;-69
2022/12/27 07:58:21;;;;;;;17.25;10.43;;;;;;;;;;5070147;28;20487;-69
2022/12/27 08:00:48;;;;;;;17.58;10.23;;;;;;;;;;5059071;28;20094;-76
2022/12/27 08:03:14;;;;;;;18.40;10.43;;;;;;;;;;5061227;28;20029;-70
2022/12/27 08:05:48;;;;;;;16.95;8.95;;;;;;;;;;5059412;28;20086;-76
2022/12/27 08:08:18;;;;;;;13.85;8.02;;;;;;;;;;5056476;28;20211;-70
2022/12/27 08:10:44;;;;;;;19.23;9.02;;;;;;;;;;5067919;28;20033;-71
2022/12/27 08:13:10;;;;;;;13.85;8.65;;;;;;;;;;5061860;28;20107;-75
2022/12/27 08:15:37;;;;;;;13.77;8.35;;;;;;;;;;5060604;28;20021;-71
2022/12/27 08:18:03;;;;;;;14.65;9.13;;;;;;;;;;5068227;28;20064;-77
2022/12/27 08:20:29;;;;;;;19.30;10.07;;;;;;;;;;5055988;28;20039;-74
2022/12/27 08:22:55;;;;;;;13.82;9.05;;;;;;;;;;5070432;28;20035;-70
2022/12/27 08:25:21;;;;;;;18.60;9.35;;;;;;;;;;5060867;28;20032;-72
2022/12/27 08:27:47;;;;;;;14.82;9.02;;;;;;;;;;5067046;28;20055;-72
2022/12/27 08:30:13;;;;;;;15.48;9.20;;;;;;;;;;5053115;28;20033;-69
2022/12/27 08:32:39;;;;;;;15.55;9.20;;;;;;;;;;5048732;28;20017;-79
2022/12/27 08:35:06;;;;;;;16.55;9.13;;;;;;;;;;5064167;28;20082;-68
2022/12/27 08:37:32;;;;;;;14.93;9.48;;;;;;;;;;5064942;28;20122;-78
2022/12/27 08:39:58;;;;;;;14.48;8.80;;;;;;;;;;5056484;28;20029;-68
2022/12/27 08:42:24;;;;;;;16.17;9.20;;;;;;;;;;5055125;28;20084;-70
2022/12/27 08:44:50;;;;;;;19.35;11.95;;;;;;;;;;5064925;28;20135;-82
2022/12/27 08:47:18;;;;;;;24.58;14.63;;;;;;;;;;5059754;28;20032;-66
2022/12/27 08:49:45;;;;;;;23.52;14.77;;;;;;;;;;5058697;28;20029;-66
2022/12/27 08:52:11;;;;;;;20.70;12.68;;;;;;;;;;5068845;28;20021;-66
2022/12/27 08:54:37;;;;;;;17.55;9.88;;;;;;;;;;5056500;28;20082;-72
2022/12/27 08:57:03;;;;;;;17.13;10.32;;;;;;;;;;5058542;28;20377;-68
2022/12/27 08:59:29;;;;;;;16.58;10.63;;;;;;;;;;5047829;28;20023;-66
2022/12/27 09:01:55;;;;;;;20.63;11.10;;;;;;;;;;5066777;28;20028;-66
2022/12/27 09:04:21;;;;;;;18.08;10.52;;;;;;;;;;5048150;28;20036;-69
2022/12/27 09:06:47;;;;;;;17.73;10.40;;;;;;;;;;5057118;28;20428;-68
2022/12/27 09:09:13;;;;;;;17.75;11.63;;;;;;;;;;5045303;28;20021;-69
2022/12/27 09:11:39;;;;;;;21.13;12.30;;;;;;;;;;5048050;28;20025;-68
2022/12/27 09:14:05;;;;;;;22.77;12.45;;;;;;;;;;5043495;28;20088;-72
2022/12/27 09:16:35;;;;;;;21.50;12.63;;;;;;;;;;5050281;28;20102;-69
2022/12/27 09:19:01;;;;;;;20.42;12.23;;;;;;;;;;5064183;28;20037;-74
2022/12/27 09:21:30;;;;;;;19.48;12.27;;;;;;;;;;5043431;28;20049;-68
2022/12/27 09:23:56;;;;;;;18.70;12.60;;;;;;;;;;5042138;28;20033;-68
2022/12/27 09:26:23;;;;;;;20.77;12.80;;;;;;;;;;5043036;28;20024;-70
2022/12/27 09:28:50;;;;;;;20.52;12.63;;;;;;;;;;5040656;28;20060;-69
2022/12/27 09:31:17;;;;;;;23.48;13.88;;;;;;;;;;5041902;28;20028;-78
2022/12/27 09:33:43;;;;;;;24.77;15.32;;;;;;;;;;5041515;28;20532;-68
2022/12/27 09:36:10;;;;;;;27.95;18.55;;;;;;;;;;5044104;28;20033;-69
2022/12/27 09:38:37;;;;;;;28.17;16.33;;;;;;;;;;5043778;28;20508;-69
2022/12/27 09:41:25;;;;;;;26.30;16.48;;;;;;;;;;5058646;28;20081;-71
2022/12/27 09:44:00;;;;;;;27.90;17.67;;;;;;;;;;5054244;28;20049;-70
2022/12/27 09:46:28;;;;;;;27.02;17.52;;;;;;;;;;5041015;28;20071;-67
2022/12/27 09:48:55;;;;;;;29.30;19.05;;;;;;;;;;5064443;28;20025;-68
2022/12/27 09:51:26;;;;;;;27.25;18.75;;;;;;;;;;5061807;28;20090;-70
2022/12/27 09:54:11;;;;;;;29.67;18.23;;;;;;;;;;5055919;28;20040;-69
2022/12/27 09:56:37;;;;;;;28.90;17.52;;;;;;;;;;5050160;28;20028;-67
2022/12/27 09:59:15;;;;;;;27.35;17.75;;;;;;;;;;5047757;28;20473;-68
2022/12/27 10:01:43;;;;;;;29.85;17.52;;;;;;;;;;5042443;28;20033;-70
2022/12/27 10:04:11;;;;;;;29.15;18.75;;;;;;;;;;5064531;28;20086;-77
2022/12/27 10:06:50;;;;;;;30.83;18.98;;;;;;;;;;5053775;28;20052;-68
2022/12/27 10:09:19;;;;;;;30.35;18.92;;;;;;;;;;5046755;28;20102;-67
2022/12/27 10:12:06;;;;;;;30.13;18.95;;;;;;;;;;5050352;28;20017;-78
2022/12/27 10:14:38;;;;;;;30.40;18.52;;;;;;;;;;5038018;28;20051;-67
2022/12/27 10:17:04;;;;;;;24.27;15.95;;;;;;;;;;5063031;28;20178;-66
2022/12/27 10:19:45;;;;;;;27.40;17.10;;;;;;;;;;5062028;28;20598;-68
2022/12/27 10:22:14;;;;;;;30.27;17.52;;;;;;;;;;5054074;28;20029;-67
2022/12/27 10:24:44;;;;;;;26.10;17.60;;;;;;;;;;5064242;28;20041;-68
2022/12/27 10:27:12;;;;;;;27.73;16.60;;;;;;;;;;5043136;28;20029;-66
2022/12/27 10:29:38;;;;;;;25.90;15.52;;;;;;;;;;5040165;28;20028;-67
2022/12/27 10:32:05;;;;;;;24.35;15.05;;;;;;;;;;5036680;28;20104;-66
2022/12/27 10:34:31;;;;;;;24.40;15.25;;;;;;;;;;5053290;28;20043;-66
2022/12/27 10:36:57;;;;;;;26.80;15.60;;;;;;;;;;5063807;28;20594;-65
2022/12/27 10:39:27;;;;;;;28.38;15.93;;;;;;;;;;5062389;28;20499;-66
2022/12/27 10:41:59;;;;;;;25.83;15.82;;;;;;;;;;5055439;28;20032;-66
2022/12/27 10:44:25;;;;;;;;;;;;;;;;;;5067499;28;20057;-66
2022/12/27 10:46:53;;;;;;;25.73;16.50;;;;;;;;;;5047897;28;20054;-71
2022/12/27 10:49:26;;;;;;;24.90;16.95;;;;;;;;;;5060588;28;20056;-69
2022/12/27 10:51:55;;;;;;;26.95;16.88;;;;;;;;;;5053077;28;20048;-65
2022/12/27 10:54:23;;;;;;;21.52;14.98;;;;;;;;;;5068195;28;20894;-71
2022/12/27 10:56:49;;;;;;;21.15;13.88;;;;;;;;;;5057640;28;20495;-67
2022/12/27 10:59:26;;;;;;;22.52;14.23;;;;;;;;;;5064683;28;20021;-67
2022/12/27 11:02:11;;;;;;;25.60;16.10;;;;;;;;;;5036943;28;20028;-67
2022/12/27 11:04:54;;;;;;;25.65;16.45;;;;;;;;;;5039841;28;20055;-80
2022/12/27 11:07:20;;;;;;;26.63;19.02;;;;;;;;;;5059904;28;20079;-66
2022/12/27 11:09:46;;;;;;;30.17;20.08;;;;;;;;;;5039103;28;20037;-67
2022/12/27 11:12:12;;;;;;;31.25;19.73;;;;;;;;;;5034448;28;20021;-68
2022/12/27 11:14:39;;;;;;;30.48;19.75;;;;;;;;;;5038944;28;20032;-66
2022/12/27 11:17:09;;;;;;;29.25;19.52;;;;;;;;;;5040400;28;20464;-68
2022/12/27 11:19:36;;;;;;;27.33;18.70;;;;;;;;;;5043465;28;20021;-72
2022/12/27 11:22:05;;;;;;;26.27;17.63;;;;;;;;;;5039300;28;20064;-68
2022/12/27 11:24:31;;;;;;;24.58;16.52;;;;;;;;;;5038753;28;20079;-63
2022/12/27 11:26:58;;;;;;;24.80;16.50;;;;;;;;;;5059397;28;20048;-76
2022/12/27 11:29:28;;;;;;;23.92;15.98;;;;;;;;;;5051322;28;20048;-65
2022/12/27 11:31:54;;;;;;;22.73;15.98;;;;;;;;;;5060565;28;20024;-76
2022/12/27 11:34:30;;;;;;;27.10;17.15;;;;;;;;;;5058995;28;20028;-64
2022/12/27 11:37:03;;;;;;;23.73;15.93;;;;;;;;;;5044470;28;20016;-63
2022/12/27 11:39:52;;;;;;;24.30;16.23;;;;;;;;;;5065853;28;20075;-72
2022/12/27 11:42:37;;;;;;;22.83;14.60;;;;;;;;;;5069498;28;20399;-77
2022/12/27 11:45:09;;;;;;;21.55;13.68;;;;;;;;;;5044069;28;20052;-65
2022/12/27 11:47:35;;;;;;;;;;;;;;;;;;5064023;28;20027;-64
2022/12/27 11:50:21;;;;;;;19.77;12.90;;;;;;;;;;5066635;28;19908;-63
2022/12/27 11:52:53;;;;;;;20.45;14.10;;;;;;;;;;5056634;28;20035;-69
2022/12/27 11:55:38;;;;;;;21.23;14.45;;;;;;;;;;5066261;28;20071;-64
2022/12/27 11:58:23;;;;;;;19.80;14.23;;;;;;;;;;5059298;28;20049;-64
2022/12/27 12:00:49;;;;;;;21.33;14.75;;;;;;;;;;5069767;28;20036;-63
2022/12/27 12:03:27;;;;;;;21.10;15.00;;;;;;;;;;5059784;28;20031;-77
2022/12/27 12:06:01;;;;;;;24.10;15.90;;;;;;;;;;5060597;28;20028;-64
2022/12/27 12:08:54;;;;;;;22.38;14.70;;;;;;;;;;5058664;28;20029;-63
2022/12/27 12:11:23;;;;;;;22.73;13.55;;;;;;;;;;5073105;28;20025;-64
2022/12/27 12:13:55;;;;;;;61.08;24.90;;;;;;;;;;5073118;28;20428;-73
2022/12/27 12:16:31;;;;;;;29.27;18.27;;;;;;;;;;5073814;28;20017;-69
2022/12/27 12:19:15;;;;;;;22.08;14.70;;;;;;;;;;5064935;28;20156;-63
2022/12/27 12:22:00;;;;;;;24.98;14.73;;;;;;;;;;5049269;28;20439;-64
2022/12/27 12:24:45;;;;;;;23.98;14.60;;;;;;;;;;5052764;28;20040;-62
2022/12/27 12:27:29;;;;;;;23.38;14.00;;;;;;;;;;5048455;28;20403;-63
2022/12/27 12:29:55;;;;;;;29.98;17.25;;;;;;;;;;5064188;28;20021;-66
2022/12/27 12:32:30;;;;;;;25.48;15.98;;;;;;;;;;5073199;28;20040;-69
2022/12/27 12:34:59;;;;;;;20.25;14.20;;;;;;;;;;5072629;28;20052;-64
2022/12/27 12:37:37;;;;;;;27.95;15.65;;;;;;;;;;5072977;28;20032;-71
2022/12/27 12:40:16;;;;;;;22.92;14.43;;;;;;;;;;5072827;28;20472;-63
2022/12/27 12:42:45;;;;;;;25.23;15.65;;;;;;;;;;5072492;28;20407;-68
2022/12/27 12:45:14;;;;;;;21.30;13.88;;;;;;;;;;5072121;28;20087;-64
2022/12/27 12:47:49;;;;;;;18.27;12.32;;;;;;;;;;5072291;28;20100;-67
2022/12/27 12:50:21;;;;;;;18.90;12.88;;;;;;;;;;5068846;28;20021;-63
2022/12/27 12:52:47;;;;;;;;;;;;;;;;;;5052720;28;20083;-63
2022/12/27 12:55:16;;;;;;;15.40;10.15;;;;;;;;;;5052736;28;19912;-63
2022/12/27 12:57:54;;;;;;;13.40;7.93;;;;;;;;;;5050468;28;20067;-62
2022/12/27 13:00:37;;;;;;;10.38;7.00;;;;;;;;;;5051987;28;20029;-70
2022/12/27 13:03:03;;;;;;;11.65;6.55;;;;;;;;;;5051820;28;20021;-74
2022/12/27 13:05:52;;;;;;;10.52;6.90;;;;;;;;;;5052049;28;20035;-66
2022/12/27 13:08:18;;;;;;;11.95;7.28;;;;;;;;;;5052048;28;20021;-63
2022/12/27 13:10:44;;;;;;;14.13;8.43;;;;;;;;;;5051629;28;20388;-63
2022/12/27 13:13:30;;;;;;;14.82;9.10;;;;;;;;;;5051682;28;20032;-63
2022/12/27 13:15:59;;;;;;;14.82;10.40;;;;;;;;;;5051889;28;20039;-73
2022/12/27 13:18:30;;;;;;;16.77;11.48;;;;;;;;;;5052019;28;20025;-63
2022/12/27 13:21:00;;;;;;;16.10;11.07;;;;;;;;;;5051584;28;20110;-63
2022/12/27 13:23:38;;;;;;;18.77;10.93;;;;;;;;;;5051328;28;20411;-64
2022/12/27 13:26:23;;;;;;;16.02;11.00;;;;;;;;;;5051268;28;20033;-63
2022/12/27 13:29:00;;;;;;;20.02;10.73;;;;;;;;;;5051262;28;20025;-63
2022/12/27 13:31:26;;;;;;;17.55;10.88;;;;;;;;;;5051345;28;20036;-64
2022/12/27 13:34:19;;;;;;;16.20;11.23;;;;;;;;;;5037591;28;20045;-70
2022/12/27 13:36:45;;;;;;;16.05;10.77;;;;;;;;;;5036740;28;20029;-64
2022/12/27 13:39:11;;;;;;;17.92;11.30;;;;;;;;;;5041537;28;20029;-64
2022/12/27 13:41:50;;;;;;;18.80;11.85;;;;;;;;;;5039780;28;20032;-63
2022/12/27 13:44:16;;;;;;;16.48;10.52;;;;;;;;;;5039097;28;20382;-64
2022/12/27 13:46:42;;;;;;;16.30;11.30;;;;;;;;;;5039222;28;20032;-63
2022/12/27 13:49:27;;;;;;;16.13;10.57;;;;;;;;;;5041230;28;20067;-69
2022/12/27 13:51:55;;;;;;;15.48;10.63;;;;;;;;;;5039665;28;20024;-63
2022/12/27 13:54:33;;;;;;;15.65;10.65;;;;;;;;;;5041540;28;20525;-64
2022/12/27 13:57:11;;;;;;;17.80;11.00;;;;;;;;;;5040178;28;20036;-64
2022/12/27 13:59:55;;;;;;;14.20;10.07;;;;;;;;;;5040812;28;20076;-63
2022/12/27 14:02:36;;;;;;;13.95;9.23;;;;;;;;;;5043367;28;20072;-67
2022/12/27 14:05:02;;;;;;;16.23;9.85;;;;;;;;;;5034910;28;20035;-64
2022/12/27 14:07:31;;;;;;;19.20;9.68;;;;;;;;;;5035217;28;20121;-64
2022/12/27 14:10:03;;;;;;;16.95;9.57;;;;;;;;;;5034676;28;20052;-64
2022/12/27 14:12:44;;;;;;;18.83;10.77;;;;;;;;;;5042369;28;20105;-64
2022/12/27 14:15:19;;;;;;;18.27;10.55;;;;;;;;;;5042922;28;20029;-64
2022/12/27 14:17:51;;;;;;;17.10;9.15;;;;;;;;;;5039931;28;20021;-64
2022/12/27 14:20:17;;;;;;;12.10;6.72;;;;;;;;;;5034465;28;20053;-63
2022/12/27 14:22:46;;;;;;;8.60;5.15;;;;;;;;;;5035732;28;20110;-63
2022/12/27 14:25:27;;;;;;;9.93;4.55;;;;;;;;;;5039700;28;20033;-64
2022/12/27 14:27:53;;;;;;;14.43;6.45;;;;;;;;;;5032202;28;20477;-63
2022/12/27 14:30:19;;;;;;;15.50;5.80;;;;;;;;;;5036448;28;20017;-65
2022/12/27 14:33:00;;;;;;;8.77;4.32;;;;;;;;;;5043288;28;20025;-64
2022/12/27 14:35:59;;;;;;;8.77;4.55;;;;;;;;;;5044712;28;20104;-67
2022/12/27 14:38:33;;;;;;;6.13;3.50;;;;;;;;;;5033066;28;20040;-65
2022/12/27 14:41:18;;;;;;;7.85;4.05;;;;;;;;;;5040406;28;20120;-63
2022/12/27 14:44:02;;;;;;;8.15;3.67;;;;;;;;;;5039761;28;20132;-65
2022/12/27 14:46:49;;;;;;;7.68;3.63;;;;;;;;;;5040627;28;20032;-75
2022/12/27 14:49:18;;;;;;;8.55;4.13;;;;;;;;;;5039630;28;20030;-69
2022/12/27 14:51:44;;;;;;;7.78;4.18;;;;;;;;;;5034174;28;20077;-63
2022/12/27 14:54:28;;;;;;;7.60;3.92;;;;;;;;;;5038030;28;20610;-64
2022/12/27 14:57:00;;;;;;;6.28;3.42;;;;;;;;;;5029778;28;20072;-68
2022/12/27 14:59:32;;;;;;;7.85;3.72;;;;;;;;;;5047812;28;20074;-64
2022/12/27 15:01:58;;;;;;;8.50;3.92;;;;;;;;;;5048254;28;20180;-64
2022/12/27 15:04:33;;;;;;;7.07;3.20;;;;;;;;;;5046986;28;20415;-64
2022/12/27 15:07:02;;;;;;;14.43;5.35;;;;;;;;;;5051875;28;20037;-63
2022/12/27 15:09:31;;;;;;;8.60;4.43;;;;;;;;;;5051950;28;20029;-64
2022/12/27 15:12:12;;;;;;;10.85;4.85;;;;;;;;;;5051384;28;20100;-63
2022/12/27 15:14:41;;;;;;;12.05;4.75;;;;;;;;;;5037505;28;20042;-63
2022/12/27 15:17:36;;;;;;;8.88;4.20;;;;;;;;;;5038205;28;20044;-63
2022/12/27 15:20:13;;;;;;;11.80;5.65;;;;;;;;;;5054171;28;20674;-63
2022/12/27 15:22:39;;;;;;;8.77;4.55;;;;;;;;;;5053829;28;20116;-61
2022/12/27 15:25:14;;;;;;;7.63;3.47;;;;;;;;;;5044359;28;20099;-63
2022/12/27 15:27:40;;;;;;;10.25;5.25;;;;;;;;;;5041925;28;20018;-69
2022/12/27 15:30:30;;;;;;;4.20;2.40;;;;;;;;;;5042915;28;20040;-63
2022/12/27 15:33:23;;;;;;;8.15;3.75;;;;;;;;;;5038094;28;20025;-63
2022/12/27 15:35:59;;;;;;;10.65;4.85;;;;;;;;;;5042598;28;20033;-63
2022/12/27 15:38:39;;;;;;;6.60;3.17;;;;;;;;;;5042744;28;20075;-63
2022/12/27 15:41:09;;;;;;;8.85;3.92;;;;;;;;;;5042297;28;20029;-63
2022/12/27 15:43:38;;;;;;;11.90;5.13;;;;;;;;;;5041198;28;20136;-63
2022/12/27 15:46:13;;;;;;;14.10;6.43;;;;;;;;;;5042535;28;20424;-63
2022/12/27 15:48:42;;;;;;;13.02;6.55;;;;;;;;;;5042962;28;20041;-63
2022/12/27 15:51:23;;;;;;;8.70;5.15;;;;;;;;;;5042830;28;20053;-65
2022/12/27 15:53:49;;;;;;;8.15;4.40;;;;;;;;;;5042593;28;20017;-64
2022/12/27 15:56:42;;;;;;;7.65;4.07;;;;;;;;;;5040988;28;20075;-70
2022/12/27 15:59:26;;;;;;;8.00;4.20;;;;;;;;;;5042022;28;20037;-63
2022/12/27 16:02:11;;;;;;;7.07;3.00;;;;;;;;;;5041990;28;20052;-63
2022/12/27 16:05:00;;;;;;;8.93;4.50;;;;;;;;;;5043136;28;20528;-63
2022/12/27 16:07:36;;;;;;;8.48;3.53;;;;;;;;;;5041084;28;20128;-62
2022/12/27 16:10:21;;;;;;;10.48;4.18;;;;;;;;;;5038604;28;20041;-63
2022/12/27 16:12:47;;;;;;;8.52;4.45;;;;;;;;;;5038321;28;20111;-64
2022/12/27 16:15:32;;;;;;;8.77;4.35;;;;;;;;;;5044816;28;20060;-63
2022/12/27 16:17:58;;;;;;;7.65;3.88;;;;;;;;;;5050949;28;20045;-63
2022/12/27 16:20:25;;;;;;;9.05;4.40;;;;;;;;;;5051162;28;20589;-64
2022/12/27 16:22:51;;;;;;;7.25;3.42;;;;;;;;;;5050617;28;20037;-63
2022/12/27 16:25:20;;;;;;;10.40;3.28;;;;;;;;;;5050433;28;20049;-67
2022/12/27 16:27:52;;;;;;;4.45;2.35;;;;;;;;;;5049857;28;20477;-63
2022/12/27 16:30:18;;;;;;;;;;;;;;;;;;5051005;28;20055;-63
2022/12/27 16:32:48;;;;;;;8.48;3.28;;;;;;;;;;5050956;28;20356;-70
2022/12/27 16:35:15;;;;;;;4.18;1.88;;;;;;;;;;5050582;28;20506;-63
2022/12/27 16:37:43;;;;;;;6.38;2.97;;;;;;;;;;5050507;28;20060;-65
2022/12/27 16:40:28;;;;;;;7.13;3.97;;;;;;;;;;5050321;28;20064;-63
2022/12/27 16:42:54;;;;;;;8.00;4.60;;;;;;;;;;5049936;28;20043;-64
2022/12/27 16:45:29;;;;;;;8.65;3.53;;;;;;;;;;5034718;28;20057;-63
2022/12/27 16:47:55;;;;;;;5.25;2.70;;;;;;;;;;5033132;28;20027;-62
2022/12/27 16:50:27;;;;;;;4.38;2.15;;;;;;;;;;5032831;28;20134;-63
2022/12/27 16:53:02;;;;;;;5.53;1.98;;;;;;;;;;5032546;28;20029;-62
2022/12/27 16:55:44;;;;;;;5.32;3.22;;;;;;;;;;5032551;28;20104;-67
2022/12/27 16:58:28;;;;;;;7.43;3.35;;;;;;;;;;5031751;28;20420;-63
2022/12/27 17:00:55;;;;;;;8.57;3.53;;;;;;;;;;5032605;28;20034;-66
2022/12/27 17:03:21;;;;;;;9.77;3.42;;;;;;;;;;5033361;28;20109;-68
2022/12/27 17:05:48;;;;;;;8.65;4.35;;;;;;;;;;5047402;28;20103;-63
2022/12/27 17:08:18;;;;;;;5.60;2.70;;;;;;;;;;5052597;28;20028;-63
2022/12/27 17:10:44;;;;;;;6.32;3.33;;;;;;;;;;5052417;28;20060;-63
2022/12/27 17:13:10;;;;;;;8.40;3.78;;;;;;;;;;5051970;28;20036;-63
2022/12/27 17:15:44;;;;;;;8.95;3.00;;;;;;;;;;5052391;28;20073;-70
2022/12/27 17:18:19;;;;;;;5.18;2.97;;;;;;;;;;5051997;28;20107;-63
2022/12/27 17:20:50;;;;;;;9.25;3.45;;;;;;;;;;5051957;28;20020;-63
2022/12/27 17:23:16;;;;;;;6.20;3.33;;;;;;;;;;5051891;28;20473;-63
2022/12/27 17:25:50;;;;;;;9.23;3.47;;;;;;;;;;5051602;28;20033;-63
2022/12/27 17:28:23;;;;;;;9.93;3.80;;;;;;;;;;5050526;28;20484;-63
2022/12/27 17:31:11;;;;;;;12.07;4.93;;;;;;;;;;5051440;28;20036;-64
2022/12/27 17:33:38;;;;;;;9.23;3.92;;;;;;;;;;5051426;28;20025;-63
2022/12/27 17:36:15;;;;;;;7.45;2.80;;;;;;;;;;5051504;28;20052;-63
2022/12/27 17:38:44;;;;;;;8.80;2.83;;;;;;;;;;5051691;28;20039;-64
2022/12/27 17:44:38;;;;;;;7.65;3.30;;;;;;;;;;5048512;28;20079;-63
2022/12/27 17:47:22;;;;;;;19.00;10.10;;;;;;;;;;5051318;28;20029;-63
2022/12/27 17:49:50;;;;;;;24.88;12.75;;;;;;;;;;5038458;28;20607;-63
2022/12/27 17:58:10;;;;;;;22.98;12.43;;;;;;;;;;5041347;28;20044;-63
2022/12/27 18:00:39;;;;;;;14.90;7.85;;;;;;;;;;5032822;28;20048;-64
2022/12/27 18:03:08;;;;;;;13.45;6.35;;;;;;;;;;5038455;28;20033;-68
2022/12/27 18:05:36;;;;;;;16.65;8.38;;;;;;;;;;5031410;28;20040;-64
2022/12/27 18:08:15;;;;;;;16.35;7.07;;;;;;;;;;5031778;28;20521;-63
2022/12/27 18:10:41;;;;;;;11.88;6.28;;;;;;;;;;5031464;28;20053;-64
2022/12/27 18:13:15;;;;;;;18.33;8.73;;;;;;;;;;5031149;28;20042;-63
2022/12/27 18:15:43;;;;;;;22.17;11.43;;;;;;;;;;5031142;28;20063;-63
2022/12/27 18:18:15;;;;;;;14.07;7.45;;;;;;;;;;5031482;28;20021;-63
2022/12/27 18:20:41;;;;;;;;;;;;;;;;;;5031135;28;20037;-63
2022/12/27 18:23:13;;;;;;;10.23;4.40;;;;;;;;;;5034663;28;19996;-64
2022/12/27 18:25:39;;;;;;;7.00;4.00;;;;;;;;;;5031220;28;20516;-63
2022/12/27 18:28:08;;;;;;;9.73;4.70;;;;;;;;;;5031170;28;20021;-63
2022/12/27 18:30:40;;;;;;;10.20;4.70;;;;;;;;;;5030894;28;20082;-63
2022/12/27 18:33:06;;;;;;;10.30;5.00;;;;;;;;;;5031163;28;20048;-64
2022/12/27 18:35:33;;;;;;;14.85;6.30;;;;;;;;;;5031002;28;20033;-63
2022/12/27 18:38:00;;;;;;;18.13;7.30;;;;;;;;;;5043464;28;20060;-64
2022/12/27 18:40:27;;;;;;;15.05;8.85;;;;;;;;;;5038697;28;20033;-62
2022/12/27 18:42:54;;;;;;;14.73;7.82;;;;;;;;;;5040213;28;20027;-68
2022/12/27 18:45:29;;;;;;;14.15;7.65;;;;;;;;;;5032804;28;20065;-71
2022/12/27 18:47:56;;;;;;;14.93;7.57;;;;;;;;;;5030715;28;20021;-63
2022/12/27 18:50:24;;;;;;;14.70;6.22;;;;;;;;;;5036432;28;20110;-63
2022/12/27 18:53:00;;;;;;;12.77;7.38;;;;;;;;;;5030997;28;20469;-63
2022/12/27 18:55:26;;;;;;;16.60;8.23;;;;;;;;;;5038321;28;20028;-63
2022/12/27 18:58:01;;;;;;;14.88;6.88;;;;;;;;;;5042263;28;20057;-63
2022/12/27 19:00:28;;;;;;;16.80;7.30;;;;;;;;;;5030546;28;20029;-63
2022/12/27 19:02:54;;;;;;;13.25;7.18;;;;;;;;;;5030763;28;20796;-63
2022/12/27 19:05:20;;;;;;;12.77;6.88;;;;;;;;;;5030563;28;20034;-67
2022/12/27 19:08:02;;;;;;;12.60;6.63;;;;;;;;;;5046549;28;20040;-63
2022/12/27 19:10:30;;;;;;;15.02;7.60;;;;;;;;;;5044391;28;20043;-63
2022/12/27 19:12:56;;;;;;;15.40;7.68;;;;;;;;;;5049758;28;20017;-63
2022/12/27 19:15:23;;;;;;;12.63;6.07;;;;;;;;;;5040668;28;20473;-63
2022/12/27 19:17:50;;;;;;;10.75;5.82;;;;;;;;;;5034572;28;20107;-65
2022/12/27 19:20:43;;;;;;;13.52;6.00;;;;;;;;;;5032456;28;20023;-66
2022/12/27 19:23:27;;;;;;;10.60;5.40;;;;;;;;;;5037744;28;20061;-68
2022/12/27 19:26:05;;;;;;;9.90;4.95;;;;;;;;;;5040678;28;20034;-62
2022/12/27 19:28:32;;;;;;;12.95;5.22;;;;;;;;;;5036924;28;20032;-63
2022/12/27 19:31:04;;;;;;;12.57;5.20;;;;;;;;;;5039395;28;20144;-64
2022/12/27 19:33:31;;;;;;;12.68;5.90;;;;;;;;;;5039626;28;20021;-71
2022/12/27 19:35:58;;;;;;;9.80;5.07;;;;;;;;;;5037707;28;20175;-62
2022/12/27 19:38:25;;;;;;;12.43;5.00;;;;;;;;;;5038845;28;20028;-70
2022/12/27 19:40:53;;;;;;;12.95;5.90;;;;;;;;;;5041998;28;20102;-63
2022/12/27 19:43:19;;;;;;;9.73;4.78;;;;;;;;;;5034280;28;20840;-63
2022/12/27 19:45:45;;;;;;;11.75;5.75;;;;;;;;;;5037301;28;20033;-73
2022/12/27 19:48:11;;;;;;;12.88;6.00;;;;;;;;;;5039818;28;20029;-72
2022/12/27 19:50:41;;;;;;;9.40;4.60;;;;;;;;;;5038343;28;20026;-66
2022/12/27 19:53:08;;;;;;;15.32;9.05;;;;;;;;;;5041769;28;20028;-65
2022/12/27 19:55:35;;;;;;;9.63;4.85;;;;;;;;;;5043303;28;20029;-67
2022/12/27 19:58:01;;;;;;;9.02;4.47;;;;;;;;;;5042008;28;20130;-63
2022/12/27 20:00:27;;;;;;;9.10;4.57;;;;;;;;;;5041166;28;20022;-62
2022/12/27 20:02:53;;;;;;;8.60;4.28;;;;;;;;;;5035134;28;20411;-63
2022/12/27 20:05:19;;;;;;;8.75;4.80;;;;;;;;;;5030255;28;20034;-64
2022/12/27 20:07:45;;;;;;;10.82;4.82;;;;;;;;;;5031838;28;20088;-65
2022/12/27 20:10:14;;;;;;;10.90;4.93;;;;;;;;;;5035702;28;20099;-64
2022/12/27 20:12:40;;;;;;;11.32;5.20;;;;;;;;;;5041760;28;20014;-70
2022/12/27 20:15:06;;;;;;;11.85;5.35;;;;;;;;;;5040550;28;20029;-67
2022/12/27 20:17:32;;;;;;;11.95;6.20;;;;;;;;;;5042750;28;20044;-69
2022/12/27 20:19:58;;;;;;;16.55;8.95;;;;;;;;;;5041917;28;20021;-75
2022/12/27 20:22:24;;;;;;;14.70;6.75;;;;;;;;;;5041119;28;20031;-74
2022/12/27 20:24:50;;;;;;;13.35;7.55;;;;;;;;;;5033204;28;20033;-64
2022/12/27 20:27:22;;;;;;;18.13;8.23;;;;;;;;;;5033114;28;20021;-64
2022/12/27 20:29:48;;;;;;;15.90;8.80;;;;;;;;;;5033124;28;20029;-72
2022/12/27 20:32:14;;;;;;;11.48;5.70;;;;;;;;;;5033291;28;20444;-72
2022/12/27 20:34:40;;;;;;;10.95;5.72;;;;;;;;;;5033106;28;20056;-65
2022/12/27 20:37:06;;;;;;;16.15;6.45;;;;;;;;;;5032873;28;20028;-64
2022/12/27 20:39:33;;;;;;;10.30;4.80;;;;;;;;;;5032241;28;20021;-67
2022/12/27 20:41:59;;;;;;;10.65;5.80;;;;;;;;;;5032990;28;20025;-70
